Time;durP1;ratioP1;P1;durP2;ratioP2;P2;SDS_P1;SDS_P2;PMS_P1;PMS_P2;Temp;Humidity;BMP_temperature;BMP_pressure;BME280_temperature;BME280_humidity;BME280_pressure;Samples;Min_cycle;Max_cycle;Signal;HPM_P1;HPM_P2
2021/12/26 00:02:12;;;;;;;10.03;2.47;;;;;;;-8.10;100.00;-18954.47;5020890;28;20481;-65
2021/12/26 00:04:37;;;;;;;8.93;2.40;;;;;;;-8.13;100.00;-18953.81;5023652;28;20298;-65
2021/12/26 00:07:03;;;;;;;6.07;2.73;;;;;;;-8.17;100.00;-18952.59;5019278;28;20026;-65
2021/12/26 00:09:31;;;;;;;7.73;2.80;;;;;;;-8.19;100.00;-18952.19;5014971;28;20504;-66
2021/12/26 00:11:58;;;;;;;8.47;3.17;;;;;;;-8.14;100.00;-18953.41;5023281;28;20335;-65
2021/12/26 00:14:24;;;;;;;7.07;2.87;;;;;;;-8.18;100.00;-18952.47;5019601;28;20298;-65
2021/12/26 00:16:49;;;;;;;6.63;3.23;;;;;;;-8.16;100.00;-18952.88;5020039;28;20981;-65
2021/12/26 00:19:15;;;;;;;8.77;3.80;;;;;;;-8.20;100.00;-18951.78;5012402;28;20453;-65
2021/12/26 00:21:43;;;;;;;7.63;3.10;;;;;;;-8.16;100.00;-18953.00;5021636;28;20018;-65
2021/12/26 00:24:09;;;;;;;8.03;3.20;;;;;;;-8.17;100.00;-18952.59;5015445;28;20087;-65
2021/12/26 00:26:37;;;;;;;9.90;3.23;;;;;;;-8.17;100.00;-18952.59;5022301;28;20256;-65
2021/12/26 00:29:04;;;;;;;6.97;2.90;;;;;;;-8.23;100.00;-18951.00;5029715;28;20052;-65
2021/12/26 00:31:32;;;;;;;8.90;3.10;;;;;;;-8.31;100.00;-18949.13;5016025;28;20705;-66
2021/12/26 00:33:57;;;;;;;9.33;3.50;;;;;;;-8.39;100.00;-18946.97;5027279;28;20280;-65
2021/12/26 00:36:23;;;;;;;7.10;3.80;;;;;;;-8.42;100.00;-18946.16;5027937;28;20295;-65
2021/12/26 00:38:51;;;;;;;8.87;3.30;;;;;;;-8.41;100.00;-18946.31;5025213;28;20375;-65
2021/12/26 00:41:16;;;;;;;8.70;3.67;;;;;;;-8.33;100.00;-18948.59;5027329;28;20029;-65
2021/12/26 00:43:42;;;;;;;6.33;3.60;;;;;;;-8.36;100.00;-18947.78;5027618;28;20271;-65
2021/12/26 00:46:08;;;;;;;8.50;3.70;;;;;;;-8.29;100.00;-18949.66;5027964;28;20113;-65
2021/12/26 00:48:33;;;;;;;9.33;4.07;;;;;;;-8.35;100.00;-18948.06;5025138;28;20036;-65
2021/12/26 00:51:02;;;;;;;11.60;3.20;;;;;;;-8.37;100.00;-18947.50;5027546;28;20045;-65
2021/12/26 00:53:28;;;;;;;9.03;3.70;;;;;;;-8.42;100.00;-18946.03;5028511;28;20033;-65
2021/12/26 00:55:54;;;;;;;7.00;3.37;;;;;;;-8.47;100.00;-18944.84;5027684;28;20645;-66
2021/12/26 00:58:20;;;;;;;8.77;4.07;;;;;;;-8.44;100.00;-18945.63;5027931;28;20033;-66
2021/12/26 01:00:48;;;;;;;9.20;3.37;;;;;;;-8.44;100.00;-18945.63;5027692;28;20033;-65
2021/12/26 01:03:18;;;;;;;5.83;3.20;;;;;;;-8.41;100.00;-18946.31;5026420;28;20025;-65
2021/12/26 01:05:48;;;;;;;10.37;3.90;;;;;;;-8.47;100.00;-18944.69;5028689;28;20279;-66
2021/12/26 01:08:17;;;;;;;7.77;3.57;;;;;;;-8.46;100.00;-18945.09;5023862;28;20273;-65
2021/12/26 01:10:54;;;;;;;9.73;4.53;;;;;;;-8.50;100.00;-18944.03;5023378;28;20375;-66
2021/12/26 01:13:31;;;;;;;9.17;3.93;;;;;;;-8.40;100.00;-18946.72;5021402;28;20272;-65
2021/12/26 01:16:03;;;;;;;11.00;4.03;;;;;;;-8.30;100.00;-18949.38;5022512;28;20928;-66
2021/12/26 01:18:32;;;;;;;7.20;3.47;;;;;;;-8.31;100.00;-18949.13;5021583;28;20812;-65
2021/12/26 01:21:09;;;;;;;20.63;3.90;;;;;;;-8.43;100.00;-18945.91;5027874;28;20017;-65
2021/12/26 01:23:34;;;;;;;7.67;3.23;;;;;;;-8.53;100.00;-18943.09;5024321;28;20790;-65
2021/12/26 01:26:00;;;;;;;6.40;3.20;;;;;;;-8.48;100.00;-18944.56;5017736;28;20283;-65
2021/12/26 01:28:28;;;;;;;6.80;3.47;;;;;;;-8.49;100.00;-18944.16;5016234;28;20030;-65
2021/12/26 01:30:56;;;;;;;5.67;2.97;;;;;;;-8.51;100.00;-18943.75;5026986;28;20142;-65
2021/12/26 01:33:22;;;;;;;6.53;3.30;;;;;;;-8.54;100.00;-18942.81;5019153;28;20362;-65
2021/12/26 01:35:48;;;;;;;7.40;3.50;;;;;;;-8.57;100.00;-18942.16;5027611;28;20483;-66
2021/12/26 01:38:15;;;;;;;8.03;3.70;;;;;;;-8.64;100.00;-18940.28;5026583;28;20112;-65
2021/12/26 01:40:50;;;;;;;9.10;3.30;;;;;;;-8.73;100.00;-18937.84;5021294;28;20087;-65
2021/12/26 01:43:20;;;;;;;8.53;3.80;;;;;;;-8.80;100.00;-18935.97;5020801;28;20296;-66
2021/12/26 01:45:49;;;;;;;6.73;3.60;;;;;;;-8.83;100.00;-18935.31;5028197;28;20687;-65
2021/12/26 01:48:16;;;;;;;7.37;3.37;;;;;;;-8.82;100.00;-18935.59;5023851;28;20280;-65
2021/12/26 01:50:42;;;;;;;8.47;3.97;;;;;;;-8.86;100.00;-18934.63;5027208;28;20269;-66
2021/12/26 01:53:10;;;;;;;20.90;6.43;;;;;;;-8.84;100.00;-18934.91;5020132;28;20422;-65
2021/12/26 01:55:45;;;;;;;22.07;5.80;;;;;;;-8.79;100.00;-18936.25;5028067;28;20268;-65
2021/12/26 01:58:21;;;;;;;18.43;6.03;;;;;;;-8.76;100.00;-18937.06;5022794;28;20292;-65
2021/12/26 02:00:54;;;;;;;8.10;3.97;;;;;;;-8.72;100.00;-18938.25;5032424;28;20738;-66
2021/12/26 02:03:20;;;;;;;8.73;3.53;;;;;;;-8.68;100.00;-18939.19;5031341;28;21040;-65
2021/12/26 02:05:46;;;;;;;8.37;3.40;;;;;;;-8.67;100.00;-18939.47;5032049;28;20288;-66
2021/12/26 02:08:12;;;;;;;7.70;3.37;;;;;;;-8.70;100.00;-18938.66;5025934;28;20294;-66
2021/12/26 02:10:41;;;;;;;8.90;4.23;;;;;;;-8.79;100.00;-18936.25;5030316;28;20049;-66
2021/12/26 02:13:07;;;;;;;9.93;4.77;;;;;;;-8.86;100.00;-18934.50;5030855;28;20636;-65
2021/12/26 02:15:33;;;;;;;10.67;4.70;;;;;;;-8.90;100.00;-18933.56;5031584;28;20732;-66
2021/12/26 02:17:58;;;;;;;9.60;4.03;;;;;;;-8.86;100.00;-18934.63;5031225;28;20076;-65
2021/12/26 02:23:33;;;;;;;10.93;4.27;;;;;;;-8.84;100.00;-18935.03;5023371;28;20037;-66
2021/12/26 02:28:38;;;;;;;13.90;4.70;;;;;;;-8.94;100.00;-18932.50;5031844;28;20264;-65
2021/12/26 02:31:04;;;;;;;8.87;4.07;;;;;;;-8.90;100.00;-18933.56;5030972;28;20276;-65
2021/12/26 02:33:30;;;;;;;6.33;3.67;;;;;;;-8.89;100.00;-18933.69;5024795;28;20276;-65
2021/12/26 02:35:55;;;;;;;9.47;3.80;;;;;;;-8.84;100.00;-18935.03;5024591;28;20767;-66
2021/12/26 02:38:21;;;;;;;9.50;4.20;;;;;;;-8.84;100.00;-18934.91;5028739;28;20034;-65
2021/12/26 02:40:49;;;;;;;9.90;4.03;;;;;;;-8.81;100.00;-18935.84;5029294;28;20029;-65
2021/12/26 02:43:19;;;;;;;10.03;4.17;;;;;;;-8.86;100.00;-18934.63;5027229;28;20378;-65
2021/12/26 02:45:45;;;;;;;14.70;4.90;;;;;;;-8.94;100.00;-18932.50;5025829;28;20638;-66
2021/12/26 02:48:12;;;;;;;12.83;3.83;;;;;;;-8.94;100.00;-18932.50;5029881;28;20758;-65
2021/12/26 02:50:39;;;;;;;9.00;4.30;;;;;;;-8.88;100.00;-18934.09;5031049;28;20091;-65
2021/12/26 02:53:06;;;;;;;7.13;3.80;;;;;;;-8.93;100.00;-18932.75;5030959;28;20280;-66
2021/12/26 02:55:32;;;;;;;10.80;3.90;;;;;;;-8.92;100.00;-18933.03;5026598;28;20284;-65
2021/12/26 02:58:09;;;;;;;9.10;4.20;;;;;;;-8.93;100.00;-18932.75;5023425;28;20854;-66
2021/12/26 03:00:40;;;;;;;9.03;4.17;;;;;;;-8.83;100.00;-18935.19;5025321;28;20268;-66
2021/12/26 03:03:09;;;;;;;8.57;3.95;;;;;;;-8.81;100.00;-18935.72;5028909;28;20303;-65
2021/12/26 03:05:38;;;;;;;8.47;4.07;;;;;;;-8.80;100.00;-18935.97;5022316;28;20355;-65
2021/12/26 03:08:05;;;;;;;10.17;3.77;;;;;;;-8.77;100.00;-18936.78;5028222;28;20338;-65
2021/12/26 03:10:31;;;;;;;9.80;3.93;;;;;;;-8.71;100.00;-18938.41;5022323;28;20276;-66
2021/12/26 03:13:00;;;;;;;7.90;4.10;;;;;;;-8.70;100.00;-18938.66;5025051;28;20264;-66
2021/12/26 03:15:28;;;;;;;9.30;3.60;;;;;;;-8.57;100.00;-18942.16;5026103;28;20273;-65
2021/12/26 03:17:54;;;;;;;8.97;4.03;;;;;;;-8.45;100.00;-18945.25;5029020;28;20316;-66
2021/12/26 03:20:23;;;;;;;7.47;4.07;;;;;;;-8.36;100.00;-18947.78;5030793;28;20260;-65
2021/12/26 03:22:48;;;;;;;7.67;3.87;;;;;;;-8.23;100.00;-18951.13;5029435;28;20764;-65
2021/12/26 03:25:17;;;;;;;8.03;3.80;;;;;;;-8.17;100.00;-18952.72;5028991;28;20279;-66
2021/12/26 03:27:43;;;;;;;8.27;3.47;;;;;;;-8.13;100.00;-18953.66;5021673;28;20020;-65
2021/12/26 03:30:13;;;;;;;5.20;2.23;;;;;;;-8.04;100.00;-18956.09;5030975;28;20260;-65
2021/12/26 03:32:39;;;;;;;7.00;3.83;;;;;;;-7.99;100.00;-18957.56;5023860;28;20300;-66
2021/12/26 03:35:05;;;;;;;6.17;3.20;;;;;;;-7.95;100.00;-18958.50;5028010;28;20751;-65
2021/12/26 03:37:31;;;;;;;11.27;4.50;;;;;;;-7.97;100.00;-18957.97;5022815;28;20286;-65
2021/12/26 03:39:56;;;;;;;12.70;4.47;;;;;;;-8.03;100.00;-18956.50;5026775;28;20275;-65
2021/12/26 03:42:25;;;;;;;11.37;4.53;;;;;;;-8.07;100.00;-18955.41;5027251;28;20389;-66
2021/12/26 03:44:51;;;;;;;9.50;4.20;;;;;;;-8.01;100.00;-18956.88;5023924;28;20021;-65
2021/12/26 03:47:18;;;;;;;7.77;3.50;;;;;;;-7.94;100.00;-18958.75;5023631;28;20326;-65
2021/12/26 03:49:44;;;;;;;8.93;3.47;;;;;;;-7.98;100.00;-18957.69;5031174;28;20823;-65
2021/12/26 03:52:10;;;;;;;9.97;4.87;;;;;;;-7.99;100.00;-18957.44;5024375;28;20532;-65
2021/12/26 03:54:36;;;;;;;7.93;3.70;;;;;;;-8.03;100.00;-18956.50;5026078;28;20029;-65
2021/12/26 03:57:01;;;;;;;9.17;4.27;;;;;;;-8.07;100.00;-18955.28;5027461;28;20639;-65
2021/12/26 03:59:27;;;;;;;17.30;5.20;;;;;;;-8.10;100.00;-18954.47;5025759;28;20231;-66
2021/12/26 04:01:56;;;;;;;11.43;5.00;;;;;;;-8.11;100.00;-18954.34;5024604;28;20469;-65
2021/12/26 04:04:22;;;;;;;8.77;4.23;;;;;;;-8.05;100.00;-18955.81;5029650;28;20280;-66
2021/12/26 04:06:48;;;;;;;9.00;3.40;;;;;;;-7.98;100.00;-18957.69;5021002;28;20346;-66
2021/12/26 04:09:13;;;;;;;11.03;5.10;;;;;;;-7.92;100.00;-18959.31;5029521;28;20543;-65
2021/12/26 04:11:42;;;;;;;7.00;2.83;;;;;;;-7.88;100.00;-18960.38;5013719;28;20034;-65
2021/12/26 04:14:08;;;;;;;8.87;3.80;;;;;;;-7.90;100.00;-18959.84;5027034;28;20485;-65
2021/12/26 04:16:33;;;;;;;8.80;3.50;;;;;;;-7.96;100.00;-18958.22;5020247;28;20629;-66
2021/12/26 04:18:59;;;;;;;11.57;3.67;;;;;;;-7.96;100.00;-18958.22;5025653;28;20315;-66
2021/12/26 04:21:24;;;;;;;11.97;4.73;;;;;;;-7.96;100.00;-18958.22;5026269;28;20092;-65
2021/12/26 04:23:49;;;;;;;9.20;3.60;;;;;;;-7.99;100.00;-18957.44;5025188;28;20037;-65
2021/12/26 04:26:15;;;;;;;9.70;4.47;;;;;;;-7.92;100.00;-18959.31;5025760;28;20030;-65
2021/12/26 04:28:40;;;;;;;8.90;3.43;;;;;;;-7.86;100.00;-18960.91;5030710;28;20292;-65
2021/12/26 04:31:06;;;;;;;13.57;4.20;;;;;;;-7.89;100.00;-18960.09;5030693;28;20029;-65
2021/12/26 04:33:31;;;;;;;9.53;4.07;;;;;;;-7.88;100.00;-18960.38;5029433;28;20021;-65
2021/12/26 04:35:57;;;;;;;6.70;3.93;;;;;;;-7.89;100.00;-18960.09;5026744;28;20048;-65
2021/12/26 04:38:22;;;;;;;9.83;4.37;;;;;;;-7.89;100.00;-18959.97;5022292;28;20044;-65
2021/12/26 04:40:50;;;;;;;8.90;3.43;;;;;;;-7.85;100.00;-18961.19;5017718;28;20045;-65
2021/12/26 04:43:16;;;;;;;11.77;4.50;;;;;;;-7.92;100.00;-18959.16;5022415;28;20053;-65
2021/12/26 04:45:42;;;;;;;11.13;4.03;;;;;;;-7.90;100.00;-18959.69;5014506;28;20304;-65
2021/12/26 04:48:07;;;;;;;12.10;5.17;;;;;;;-7.95;100.00;-18958.50;5019851;28;20036;-65
2021/12/26 04:50:35;;;;;;;12.50;4.27;;;;;;;-7.97;100.00;-18957.97;5030918;28;20036;-65
2021/12/26 04:53:00;;;;;;;11.73;5.10;;;;;;;-8.02;100.00;-18956.63;5025905;28;20033;-65
2021/12/26 04:55:28;;;;;;;11.80;4.47;;;;;;;-7.97;100.00;-18957.97;5021745;28;20283;-65
2021/12/26 04:57:54;;;;;;;11.87;4.87;;;;;;;-7.96;100.00;-18958.22;5027128;28;20267;-65
2021/12/26 05:00:22;;;;;;;11.60;4.90;;;;;;;-7.95;100.00;-18958.50;5028864;28;20823;-65
2021/12/26 05:02:48;;;;;;;9.50;4.07;;;;;;;-7.95;100.00;-18958.38;5025811;28;20303;-65
2021/12/26 05:05:14;;;;;;;11.90;4.53;;;;;;;-7.94;100.00;-18958.75;5023253;28;20303;-65
2021/12/26 05:07:41;;;;;;;8.60;3.70;;;;;;;-7.93;100.00;-18959.03;5024031;28;20640;-65
2021/12/26 05:10:09;;;;;;;13.50;4.30;;;;;;;-7.98;100.00;-18957.69;5021570;28;20287;-65
2021/12/26 05:12:36;;;;;;;12.13;4.63;;;;;;;-7.94;100.00;-18958.75;5025890;28;20351;-65
2021/12/26 05:15:05;;;;;;;14.10;4.37;;;;;;;-7.90;100.00;-18959.84;5022837;28;20272;-66
2021/12/26 05:17:31;;;;;;;9.37;4.30;;;;;;;-7.95;100.00;-18958.50;5028035;28;20287;-65
2021/12/26 05:19:57;;;;;;;10.03;5.13;;;;;;;-7.99;100.00;-18957.44;5022448;28;20812;-71
2021/12/26 05:22:22;;;;;;;11.27;4.67;;;;;;;-8.00;100.00;-18957.16;5028453;28;20025;-65
2021/12/26 05:24:48;;;;;;;8.13;3.50;;;;;;;-8.01;100.00;-18956.88;5022114;28;20029;-65
2021/12/26 05:27:14;;;;;;;9.97;4.70;;;;;;;-8.12;100.00;-18954.06;5021116;28;20533;-65
2021/12/26 05:29:40;;;;;;;10.67;4.70;;;;;;;-8.11;100.00;-18954.34;5023543;28;20330;-66
2021/12/26 05:32:06;;;;;;;10.03;4.33;;;;;;;-8.14;100.00;-18953.53;5024797;28;20680;-65
2021/12/26 05:34:31;;;;;;;9.77;4.13;;;;;;;-8.26;100.00;-18950.47;5028051;28;20610;-65
2021/12/26 05:36:57;;;;;;;10.60;4.83;;;;;;;-8.30;100.00;-18949.25;5021782;28;20034;-66
2021/12/26 05:39:22;;;;;;;9.27;4.47;;;;;;;-8.36;100.00;-18947.78;5018545;28;20033;-65
2021/12/26 05:41:48;;;;;;;10.20;4.67;;;;;;;-8.44;100.00;-18945.63;5027807;28;20032;-65
2021/12/26 05:44:13;;;;;;;9.53;4.60;;;;;;;-8.46;100.00;-18944.97;5024192;28;20034;-65
2021/12/26 05:46:38;;;;;;;12.10;5.03;;;;;;;-8.52;100.00;-18943.50;5019295;28;20021;-65
2021/12/26 05:49:04;;;;;;;9.60;3.97;;;;;;;-8.45;100.00;-18945.38;5030262;28;20057;-65
2021/12/26 05:51:30;;;;;;;6.80;3.67;;;;;;;-8.42;100.00;-18946.16;5029005;28;20460;-66
2021/12/26 05:53:55;;;;;;;8.93;3.47;;;;;;;-8.37;100.00;-18947.50;5017945;28;20120;-66
2021/12/26 05:56:21;;;;;;;7.57;3.80;;;;;;;-8.40;100.00;-18946.72;5029909;28;20292;-65
2021/12/26 05:58:46;;;;;;;7.10;3.30;;;;;;;-8.41;100.00;-18946.44;5023738;28;20094;-66
2021/12/26 06:01:12;;;;;;;8.13;3.87;;;;;;;-8.39;100.00;-18946.97;5019178;28;20425;-66
2021/12/26 06:03:40;;;;;;;7.43;3.83;;;;;;;-8.40;100.00;-18946.56;5026635;28;20124;-65
2021/12/26 06:06:05;;;;;;;9.67;4.50;;;;;;;-8.39;100.00;-18946.97;5027203;28;20025;-65
2021/12/26 06:08:31;;;;;;;6.40;3.10;;;;;;;-8.30;100.00;-18949.38;5017543;28;20287;-66
2021/12/26 06:10:57;;;;;;;9.37;3.80;;;;;;;-8.30;100.00;-18949.38;5027196;28;20025;-65
2021/12/26 06:13:22;;;;;;;6.80;3.40;;;;;;;-8.27;100.00;-18950.06;5028351;28;20744;-65
2021/12/26 06:15:48;;;;;;;7.23;3.90;;;;;;;-8.29;100.00;-18949.66;5024670;28;20429;-66
2021/12/26 06:18:13;;;;;;;7.63;3.50;;;;;;;-8.34;100.00;-18948.31;5020100;28;20057;-65
2021/12/26 06:20:39;;;;;;;7.70;4.27;;;;;;;-8.34;100.00;-18948.31;5027549;28;20022;-65
2021/12/26 06:23:04;;;;;;;8.77;3.93;;;;;;;-8.43;100.00;-18945.91;5026880;28;20037;-65
2021/12/26 06:25:31;;;;;;;8.33;4.30;;;;;;;-8.30;100.00;-18949.38;5023553;28;20470;-65
2021/12/26 06:27:56;;;;;;;10.90;5.10;;;;;;;-8.35;100.00;-18948.06;5027516;28;20022;-65
2021/12/26 06:30:21;;;;;;;8.47;4.17;;;;;;;-8.35;100.00;-18948.06;5018940;28;20277;-65
2021/12/26 06:32:49;;;;;;;7.80;4.40;;;;;;;-8.38;100.00;-18947.25;5019027;28;20029;-65
2021/12/26 06:35:15;;;;;;;10.70;4.83;;;;;;;-8.37;100.00;-18947.38;5018947;28;20048;-65
2021/12/26 06:37:40;;;;;;;9.83;5.20;;;;;;;-8.41;100.00;-18946.31;5025501;28;20280;-65
2021/12/26 06:40:10;;;;;;;11.50;5.40;;;;;;;-8.41;100.00;-18946.44;5027730;28;20108;-65
2021/12/26 06:42:41;;;;;;;8.17;3.37;;;;;;;-8.37;100.00;-18947.50;5025051;28;20389;-65
2021/12/26 06:45:08;;;;;;;9.23;4.53;;;;;;;-8.42;100.00;-18946.03;5029034;28;20374;-65
2021/12/26 06:47:34;;;;;;;7.03;3.73;;;;;;;-8.46;100.00;-18944.97;5020960;28;20636;-66
2021/12/26 06:49:59;;;;;;;7.17;4.00;;;;;;;-8.37;100.00;-18947.50;5029601;28;20272;-66
2021/12/26 06:52:24;;;;;;;9.53;4.13;;;;;;;-8.22;100.00;-18951.41;5032830;28;20035;-66
2021/12/26 06:54:50;;;;;;;7.37;3.33;;;;;;;-8.23;100.00;-18951.00;5020073;28;20033;-66
2021/12/26 06:57:16;;;;;;;5.57;3.80;;;;;;;-8.06;100.00;-18955.69;5021430;28;20026;-65
2021/12/26 06:59:41;;;;;;;11.27;4.13;;;;;;;-8.01;100.00;-18957.03;5033098;28;20683;-65
2021/12/26 07:02:07;;;;;;;8.33;3.30;;;;;;;-7.93;100.00;-18959.03;5028910;28;20381;-66
2021/12/26 07:04:32;;;;;;;6.30;2.83;;;;;;;-7.88;100.00;-18960.38;5032962;28;20470;-65
2021/12/26 07:06:58;;;;;;;6.87;3.20;;;;;;;-7.85;100.00;-18961.19;5032472;28;20032;-65
2021/12/26 07:09:23;;;;;;;6.27;3.70;;;;;;;-7.76;100.00;-18963.44;5030447;28;20032;-65
2021/12/26 07:11:49;;;;;;;6.60;3.17;;;;;;;-7.78;100.00;-18962.91;5021294;28;20105;-65
2021/12/26 07:14:14;;;;;;;8.20;3.40;;;;;;;-7.87;100.00;-18960.66;5030542;28;20034;-66
2021/12/26 07:16:40;;;;;;;8.17;3.80;;;;;;;-7.89;100.00;-18960.09;5032464;28;20033;-66
2021/12/26 07:19:05;;;;;;;12.17;3.37;;;;;;;-7.93;100.00;-18958.91;5032146;28;20045;-66
2021/12/26 07:21:30;;;;;;;5.97;3.17;;;;;;;-7.91;100.00;-18959.44;5027648;28;20026;-66
2021/12/26 07:23:56;;;;;;;7.83;3.80;;;;;;;-7.97;100.00;-18957.97;5029835;28;20104;-66
2021/12/26 07:26:23;;;;;;;7.30;3.40;;;;;;;-7.93;100.00;-18958.91;5032522;28;20079;-66
2021/12/26 07:28:49;;;;;;;9.37;3.43;;;;;;;-7.96;100.00;-18958.22;5030299;28;20056;-66
2021/12/26 07:31:15;;;;;;;8.17;3.53;;;;;;;-7.92;100.00;-18959.16;5032146;28;20288;-66
2021/12/26 07:33:41;;;;;;;5.80;2.97;;;;;;;-7.98;100.00;-18957.81;5031863;28;20025;-66
2021/12/26 07:36:07;;;;;;;7.07;3.00;;;;;;;-7.91;100.00;-18959.44;5032441;28;20476;-66
2021/12/26 07:38:32;;;;;;;8.33;3.97;;;;;;;-7.89;100.00;-18960.09;5031617;28;20385;-66
2021/12/26 07:40:57;;;;;;;7.07;3.03;;;;;;;-7.88;100.00;-18960.38;5032125;28;20095;-66
2021/12/26 07:43:23;;;;;;;5.07;2.70;;;;;;;-7.86;100.00;-18960.78;5026177;28;20490;-66
2021/12/26 07:45:48;;;;;;;7.00;3.57;;;;;;;-7.80;100.00;-18962.38;5024139;28;20029;-66
2021/12/26 07:48:14;;;;;;;6.53;3.20;;;;;;;-7.70;100.00;-18965.19;5029767;28;20036;-66
2021/12/26 07:50:39;;;;;;;9.90;3.17;;;;;;;-7.57;100.00;-18968.41;5031789;28;20068;-66
2021/12/26 07:53:09;;;;;;;7.97;4.13;;;;;;;-7.42;100.00;-18972.44;5031152;28;20036;-65
2021/12/26 07:55:35;;;;;;;8.77;3.60;;;;;;;-7.38;100.00;-18973.63;5031538;28;20087;-66
2021/12/26 07:58:00;;;;;;;9.30;3.90;;;;;;;-7.33;100.00;-18974.84;5028822;28;20614;-66
2021/12/26 08:00:26;;;;;;;5.13;2.90;;;;;;;-7.28;100.00;-18976.19;5032024;28;20028;-66
2021/12/26 08:02:52;;;;;;;8.13;3.77;;;;;;;-7.29;100.00;-18975.91;5027922;28;20083;-66
2021/12/26 08:05:17;;;;;;;7.57;3.83;;;;;;;-7.16;100.00;-18979.38;5024003;28;20017;-66
2021/12/26 08:07:45;;;;;;;8.23;3.87;;;;;;;-7.00;100.00;-18983.41;5027034;28;20025;-66
2021/12/26 08:10:11;;;;;;;8.57;3.73;;;;;;;-6.91;100.00;-18985.81;5022637;28;20186;-66
2021/12/26 08:12:36;;;;;;;6.90;3.43;;;;;;;-6.77;100.00;-18989.44;5024940;28;20279;-66
2021/12/26 08:15:03;;;;;;;7.13;3.37;;;;;;;-6.72;100.00;-18990.91;5023247;28;20367;-66
2021/12/26 08:17:29;;;;;;;7.67;3.93;;;;;;;-6.77;100.00;-18989.44;5022563;28;20025;-66
2021/12/26 08:19:56;;;;;;;6.87;3.07;;;;;;;-6.66;100.00;-18992.38;5030628;28;20267;-66
2021/12/26 08:22:22;;;;;;;7.33;3.30;;;;;;;-6.65;100.00;-18992.78;5020608;28;20268;-66
2021/12/26 08:24:47;;;;;;;9.30;3.87;;;;;;;-6.14;100.00;-19006.16;5019777;28;20279;-66
2021/12/26 08:27:13;;;;;;;8.87;4.77;;;;;;;-5.51;100.00;-19022.75;5013746;28;20482;-66
2021/12/26 08:29:38;;;;;;;9.27;3.40;;;;;;;-5.16;100.00;-19031.84;5015046;28;20021;-66
2021/12/26 08:32:05;;;;;;;6.43;3.00;;;;;;;-4.97;100.00;-19036.91;5017155;28;20118;-66
2021/12/26 08:34:31;;;;;;;8.13;3.70;;;;;;;-4.74;100.00;-19043.06;5012324;28;20029;-66
2021/12/26 08:37:02;;;;;;;10.10;3.23;;;;;;;-4.54;100.00;-19048.13;5016259;28;20292;-66
2021/12/26 08:39:38;;;;;;;9.80;3.87;;;;;;;-4.32;100.00;-19053.88;5019306;28;20143;-67
2021/12/26 08:42:08;;;;;;;6.20;3.13;;;;;;;-4.26;100.00;-19055.63;5023888;28;20279;-66
2021/12/26 08:44:36;;;;;;;10.27;4.20;;;;;;;-4.23;100.00;-19056.44;5025189;28;20291;-66
2021/12/26 08:47:02;;;;;;;5.70;2.93;;;;;;;-4.17;100.00;-19058.03;5019669;28;20264;-66
2021/12/26 08:49:28;;;;;;;8.97;3.97;;;;;;;-4.23;100.00;-19056.44;5023582;28;20276;-66
2021/12/26 08:51:54;;;;;;;11.90;5.00;;;;;;;-4.43;100.00;-19051.22;5015426;28;20275;-67
2021/12/26 08:54:22;;;;;;;8.50;3.27;;;;;;;-4.07;100.00;-19060.44;5023375;28;20586;-67
2021/12/26 08:56:48;;;;;;;8.97;4.00;;;;;;;-4.19;100.00;-19057.50;5024247;28;20040;-66
2021/12/26 08:59:13;;;;;;;8.63;3.57;;;;;;;-4.58;100.00;-19047.22;5023018;28;20299;-66
2021/12/26 09:01:39;;;;;;;7.73;3.50;;;;;;;-5.24;100.00;-19029.69;5016254;28;20037;-66
2021/12/26 09:04:05;;;;;;;10.33;3.77;;;;;;;-5.65;100.00;-19019.00;5020337;28;20253;-66
2021/12/26 09:06:30;;;;;;;6.67;3.47;;;;;;;-5.82;100.00;-19014.44;5019530;28;20041;-66
2021/12/26 09:08:59;;;;;;;9.00;3.80;;;;;;;-5.84;100.00;-19013.91;5017940;28;20026;-66
2021/12/26 09:11:24;;;;;;;8.57;3.70;;;;;;;-5.82;100.00;-19014.59;5012450;28;20025;-66
2021/12/26 09:13:52;;;;;;;10.50;5.10;;;;;;;-5.84;100.00;-19013.91;5015983;28;20283;-66
2021/12/26 09:16:18;;;;;;;6.40;2.87;;;;;;;-5.74;100.00;-19016.59;5009733;28;20033;-66
2021/12/26 09:18:43;;;;;;;8.63;4.03;;;;;;;-5.68;100.00;-19018.19;5014174;28;20327;-66
2021/12/26 09:21:09;;;;;;;10.13;4.00;;;;;;;-5.64;100.00;-19019.28;5023779;28;20120;-66
2021/12/26 09:23:34;;;;;;;6.13;3.37;;;;;;;-5.57;100.00;-19021.13;5023857;28;20038;-66
2021/12/26 09:26:00;;;;;;;8.37;3.43;;;;;;;-5.51;100.00;-19022.75;5023264;28;20033;-66
2021/12/26 09:28:26;;;;;;;8.03;4.63;;;;;;;-5.49;100.00;-19023.28;5012417;28;20034;-67
2021/12/26 09:30:51;;;;;;;8.60;3.33;;;;;;;-5.44;100.00;-19024.47;5020554;28;20087;-67
2021/12/26 09:33:19;;;;;;;9.50;3.63;;;;;;;-5.41;100.00;-19025.28;5023771;28;20048;-66
2021/12/26 09:35:51;;;;;;;6.87;3.27;;;;;;;-5.42;100.00;-19025.16;5024488;28;20045;-66
2021/12/26 09:38:23;;;;;;;7.47;2.83;;;;;;;-5.33;100.00;-19027.41;5022861;28;20987;-66
2021/12/26 09:40:48;;;;;;;10.63;5.15;;;;;;;-5.30;100.00;-19028.22;5024588;28;20087;-66
2021/12/26 09:43:14;;;;;;;10.00;4.03;;;;;;;-5.22;100.00;-19030.38;5023182;28;20032;-66
2021/12/26 09:45:39;;;;;;;6.07;3.07;;;;;;;-5.19;100.00;-19031.03;5025054;28;20048;-66
2021/12/26 09:48:05;;;;;;;5.20;2.67;;;;;;;-5.13;100.00;-19032.63;5017155;28;20117;-66
2021/12/26 09:50:30;;;;;;;24.17;4.23;;;;;;;-5.02;100.00;-19035.56;5015514;28;20056;-66
2021/12/26 09:52:56;;;;;;;8.30;3.37;;;;;;;-4.95;100.00;-19037.44;5020687;28;20079;-66
2021/12/26 09:55:25;;;;;;;9.73;3.13;;;;;;;-4.93;100.00;-19038.00;5011464;28;20025;-66
2021/12/26 09:57:51;;;;;;;9.80;3.53;;;;;;;-4.86;100.00;-19039.72;5021881;28;20030;-66
2021/12/26 10:00:29;;;;;;;10.50;3.30;;;;;;;-4.78;100.00;-19042.00;5010583;28;20665;-65
2021/12/26 10:03:22;;;;;;;5.63;2.83;;;;;;;-4.72;100.00;-19043.59;5012429;28;20036;-66
2021/12/26 10:05:56;;;;;;;6.90;3.40;;;;;;;-4.63;100.00;-19045.72;5021861;28;20763;-66
2021/12/26 10:08:22;;;;;;;8.20;3.27;;;;;;;-4.57;100.00;-19047.34;5013184;28;20319;-66
2021/12/26 10:11:31;;;;;;;6.57;3.50;;;;;;;-4.52;100.00;-19048.69;5011803;28;20358;-66
2021/12/26 10:14:04;;;;;;;5.60;3.23;;;;;;;-4.47;100.00;-19050.00;4979621;28;20037;-67
2021/12/26 10:16:35;;;;;;;7.27;3.67;;;;;;;-4.38;100.00;-19052.28;4965230;28;20865;-66
2021/12/26 10:19:05;;;;;;;6.20;3.20;;;;;;;-4.26;100.00;-19055.63;4981823;28;20309;-66
2021/12/26 10:21:40;;;;;;;12.67;3.67;;;;;;;-4.20;100.00;-19057.22;4976128;28;20289;-66
2021/12/26 10:24:25;;;;;;;6.77;3.43;;;;;;;-4.11;100.00;-19059.38;4976575;28;20317;-66
2021/12/26 10:27:01;;;;;;;7.27;3.03;;;;;;;-4.02;100.00;-19061.75;4971720;28;20357;-66
2021/12/26 10:29:43;;;;;;;6.90;3.60;;;;;;;-3.96;100.00;-19063.38;4972077;28;20285;-66
2021/12/26 10:32:12;;;;;;;12.00;4.93;;;;;;;-3.96;100.00;-19063.38;4969732;28;20286;-66
2021/12/26 10:34:43;;;;;;;9.40;4.00;;;;;;;-3.90;100.00;-19064.97;4970513;28;20706;-66
2021/12/26 10:37:12;;;;;;;6.40;3.27;;;;;;;-3.89;100.00;-19065.25;4981494;28;20726;-66
2021/12/26 10:39:45;;;;;;;7.53;3.87;;;;;;;-3.84;100.00;-19066.56;4979415;28;20274;-66
2021/12/26 10:42:16;;;;;;;8.83;3.40;;;;;;;-3.81;100.00;-19067.25;4968585;28;20721;-66
2021/12/26 10:44:52;;;;;;;9.80;4.18;;;;;;;-3.80;100.00;-19067.50;4972367;28;20697;-66
2021/12/26 10:47:21;;;;;;;9.03;3.97;;;;;;;-3.74;100.00;-19069.25;4991675;28;20034;-66
2021/12/26 10:49:54;;;;;;;11.00;4.10;;;;;;;-3.72;100.00;-19069.78;5027442;28;20759;-66
2021/12/26 10:52:32;;;;;;;6.37;3.30;;;;;;;-3.59;100.00;-19073.13;5019874;28;20287;-66
2021/12/26 10:54:59;;;;;;;5.00;2.63;;;;;;;-3.57;100.00;-19073.78;5025834;28;20283;-66
2021/12/26 10:57:30;;;;;;;9.30;3.93;;;;;;;-3.54;100.00;-19074.59;5024332;28;20718;-66
2021/12/26 11:00:23;;;;;;;6.78;3.67;;;;;;;-3.47;100.00;-19076.19;5013655;28;20261;-66
2021/12/26 11:02:54;;;;;;;7.63;3.60;;;;;;;-3.48;100.00;-19075.91;4960985;28;20443;-66
2021/12/26 11:05:29;;;;;;;8.10;3.58;;;;;;;-3.43;100.00;-19077.38;4964386;28;20317;-66
2021/12/26 11:08:00;;;;;;;5.80;2.73;;;;;;;-3.39;100.00;-19078.31;4964774;28;20049;-66
2021/12/26 11:10:36;;;;;;;4.97;2.75;;;;;;;-3.39;100.00;-19078.31;4960547;28;20282;-66
2021/12/26 11:13:04;;;;;;;7.10;2.93;;;;;;;-3.41;100.00;-19077.91;4970837;28;20498;-66
2021/12/26 11:15:35;;;;;;;7.13;3.10;;;;;;;-3.40;100.00;-19078.19;4964378;28;20663;-65
2021/12/26 11:18:09;;;;;;;9.27;3.33;;;;;;;-3.35;100.00;-19079.53;4968094;28;20338;-66
2021/12/26 11:20:40;;;;;;;7.37;3.43;;;;;;;-3.26;100.00;-19081.94;4964052;28;20278;-66
2021/12/26 11:23:11;;;;;;;6.70;2.43;;;;;;;-3.22;100.00;-19082.84;4963589;28;20289;-66